Time;durP1;ratioP1;P1;durP2;ratioP2;P2;SDS_P1;SDS_P2;PMS_P1;PMS_P2;Temp;Humidity;BMP_temperature;BMP_pressure;BME280_temperature;BME280_humidity;BME280_pressure;Samples;Min_cycle;Max_cycle;Signal;HPM_P1;HPM_P2
2023/02/19 00:00:31;;;;;;;22.50;4.28;;;;;;;7.57;100.00;101912.47;5074169;28;20031;-80
2023/02/19 00:02:56;;;;;;;26.70;4.15;;;;;;;7.59;100.00;101910.56;5074126;28;20025;-79
2023/02/19 00:05:23;;;;;;;21.95;4.22;;;;;;;7.60;100.00;101912.28;5074095;28;20058;-80
2023/02/19 00:07:48;;;;;;;22.52;3.80;;;;;;;7.64;100.00;101916.41;5074160;28;20033;-80
2023/02/19 00:10:14;;;;;;;19.65;3.80;;;;;;;7.66;100.00;101914.53;5074195;28;20074;-79
2023/02/19 00:12:39;;;;;;;19.77;3.80;;;;;;;7.70;100.00;101912.53;5074109;28;20047;-80
2023/02/19 00:15:05;;;;;;;22.60;3.85;;;;;;;7.72;100.00;101913.31;5074208;28;20037;-79
2023/02/19 00:17:30;;;;;;;18.55;3.75;;;;;;;7.74;100.00;101911.41;5074473;28;20043;-79
2023/02/19 00:19:56;;;;;;;19.45;3.70;;;;;;;7.77;100.00;101921.81;5055690;28;20485;-80
2023/02/19 00:22:21;;;;;;;15.32;3.53;;;;;;;7.76;100.00;101906.88;5073004;28;20040;-79
2023/02/19 00:24:48;;;;;;;20.42;3.42;;;;;;;7.75;100.00;101918.44;5055591;28;20028;-80
2023/02/19 00:27:13;;;;;;;15.02;3.63;;;;;;;7.77;100.00;101911.22;5073982;28;20032;-79
2023/02/19 00:29:38;;;;;;;18.38;3.72;;;;;;;7.79;100.00;101911.13;5073492;28;20159;-83
2023/02/19 00:32:04;;;;;;;17.02;3.83;;;;;;;7.77;100.00;101920.03;5073611;28;20493;-79
2023/02/19 00:34:29;;;;;;;21.40;3.70;;;;;;;7.75;100.00;101913.13;5073771;28;20072;-80
2023/02/19 00:36:55;;;;;;;20.13;3.38;;;;;;;7.77;100.00;101919.19;5055333;28;20040;-79
2023/02/19 00:39:20;;;;;;;13.27;2.97;;;;;;;7.77;100.00;101922.66;5073617;28;20465;-78
2023/02/19 00:41:46;;;;;;;18.15;3.03;;;;;;;7.79;100.00;101922.56;5072775;28;20035;-78
2023/02/19 00:44:12;;;;;;;22.88;3.72;;;;;;;7.86;100.00;101923.91;5055706;28;20025;-79
2023/02/19 00:46:40;;;;;;;20.50;3.78;;;;;;;7.90;100.00;101929.88;5073651;28;20056;-79
2023/02/19 00:49:08;;;;;;;17.42;3.22;;;;;;;7.95;100.00;101930.44;5055445;28;20121;-79
2023/02/19 00:51:36;;;;;;;17.25;3.67;;;;;;;8.00;100.00;101927.50;5055515;28;20036;-77
2023/02/19 00:54:02;;;;;;;18.02;3.47;;;;;;;8.01;100.00;101930.06;5054936;28;20119;-79
2023/02/19 00:56:28;;;;;;;13.75;3.20;;;;;;;8.05;100.00;101938.69;5073476;28;20038;-80
2023/02/19 00:58:55;;;;;;;13.63;2.88;;;;;;;8.07;100.00;101934.13;5054983;28;20563;-77
2023/02/19 01:01:21;;;;;;;12.50;3.08;;;;;;;8.09;100.00;101926.91;5073176;28;20032;-78
2023/02/19 01:03:47;;;;;;;15.40;4.45;;;;;;;8.14;100.00;101934.59;5073523;28;20059;-79
2023/02/19 01:06:14;;;;;;;11.73;3.42;;;;;;;8.18;100.00;101949.34;5073130;28;20488;-78
2023/02/19 01:08:40;;;;;;;16.10;3.45;;;;;;;8.19;100.00;101932.50;5073070;28;20033;-80
2023/02/19 01:11:07;;;;;;;18.65;3.33;;;;;;;8.19;100.00;101943.94;5072850;28;20041;-79
2023/02/19 01:13:33;;;;;;;19.88;3.83;;;;;;;8.22;100.00;101946.41;5072981;28;20457;-78
2023/02/19 01:16:20;;;;;;;15.85;2.95;;;;;;;8.17;100.00;101942.38;5072599;28;20090;-78
2023/02/19 01:18:46;;;;;;;15.60;2.70;;;;;;;8.14;100.00;101930.16;5072629;28;20111;-79
2023/02/19 01:21:15;;;;;;;27.33;3.33;;;;;;;8.11;100.00;101933.00;5072997;28;20032;-77
2023/02/19 01:23:42;;;;;;;16.52;3.15;;;;;;;8.12;100.00;101945.28;5072900;28;20020;-78
2023/02/19 01:26:11;;;;;;;18.40;3.22;;;;;;;8.15;100.00;101937.16;5072319;28;20028;-77
2023/02/19 01:28:37;;;;;;;17.63;3.22;;;;;;;8.23;100.00;101928.72;5072459;28;20028;-78
2023/02/19 01:31:05;;;;;;;18.70;3.38;;;;;;;8.22;100.00;101935.81;5072125;28;20476;-77
2023/02/19 01:33:31;;;;;;;14.85;3.25;;;;;;;8.25;100.00;101948.03;5054753;28;20041;-77
2023/02/19 01:35:56;;;;;;;25.83;3.50;;;;;;;8.27;100.00;101938.16;5072157;28;20439;-77
2023/02/19 01:38:21;;;;;;;21.77;3.63;;;;;;;8.27;100.00;101940.81;5072831;28;20414;-78
2023/02/19 01:40:58;;;;;;;13.38;3.20;;;;;;;8.26;100.00;101937.31;5072348;28;20063;-83
2023/02/19 01:43:23;;;;;;;17.15;3.65;;;;;;;8.30;100.00;101943.28;5072594;28;20079;-77
2023/02/19 01:45:49;;;;;;;21.35;3.63;;;;;;;8.30;100.00;101944.13;5072134;28;20060;-78
2023/02/19 01:48:18;;;;;;;25.67;3.97;;;;;;;8.29;100.00;101960.16;5072774;28;20055;-77
2023/02/19 01:50:49;;;;;;;14.85;2.90;;;;;;;8.28;100.00;101946.03;5072583;28;20024;-77
2023/02/19 01:53:18;;;;;;;23.92;3.33;;;;;;;8.28;100.00;101943.41;5072760;28;20029;-79
2023/02/19 01:55:47;;;;;;;29.55;4.45;;;;;;;8.29;100.00;101945.06;5072402;28;20485;-77
2023/02/19 01:58:14;;;;;;;22.15;4.88;;;;;;;8.27;100.00;101946.13;5071994;28;20027;-77
2023/02/19 02:00:39;;;;;;;22.83;4.18;;;;;;;8.27;100.00;101956.72;5072300;28;20139;-78
2023/02/19 02:03:05;;;;;;;18.38;3.47;;;;;;;8.25;100.00;101963.94;5071846;28;20028;-79
2023/02/19 02:05:41;;;;;;;22.23;3.75;;;;;;;8.24;100.00;101967.53;5054336;28;20032;-78
2023/02/19 02:10:51;;;;;;;19.20;3.15;;;;;;;8.20;100.00;101977.47;5072239;28;20040;-83
2023/02/19 02:13:17;;;;;;;19.48;3.30;;;;;;;8.20;100.00;101966.03;5072250;28;20036;-78
2023/02/19 02:16:10;;;;;;;19.80;3.53;;;;;;;8.18;100.00;101967.91;5072189;28;20028;-79
2023/02/19 02:18:46;;;;;;;23.20;3.38;;;;;;;8.14;100.00;101971.72;5072425;28;20108;-78
2023/02/19 02:21:36;;;;;;;16.00;3.22;;;;;;;8.14;100.00;101975.22;5071808;28;20400;-77
2023/02/19 02:24:10;;;;;;;20.10;3.90;;;;;;;8.14;100.00;101969.91;5071354;28;20453;-78
2023/02/19 02:27:01;;;;;;;15.07;3.05;;;;;;;8.11;100.00;101973.59;5072202;28;20035;-78
2023/02/19 02:29:47;;;;;;;16.38;3.60;;;;;;;8.05;100.00;101979.28;5072258;28;20579;-77
2023/02/19 02:32:25;;;;;;;18.38;3.67;;;;;;;8.00;100.00;101968.13;5071272;28;20957;-76
2023/02/19 02:35:02;;;;;;;18.50;3.60;;;;;;;7.98;100.00;101975.31;5071770;28;20420;-77
2023/02/19 02:37:33;;;;;;;19.98;3.72;;;;;;;8.00;100.00;101969.91;5072032;28;20033;-77
2023/02/19 02:40:00;;;;;;;13.70;3.30;;;;;;;8.01;100.00;101974.28;5071649;28;20025;-78
2023/02/19 02:42:28;;;;;;;23.02;3.20;;;;;;;8.04;100.00;101982.03;5071914;28;20032;-77
2023/02/19 02:45:40;;;;;;;25.08;4.15;;;;;;;8.09;100.00;101980.81;5071935;28;20054;-77
2023/02/19 02:47:53;;;;;;;14.93;3.67;;;;;;;8.08;100.00;101980.91;5061617;28;20131;-77
2023/02/19 02:50:27;;;;;;;15.20;2.97;;;;;;;8.09;100.00;101974.63;5075289;28;20024;-79
2023/02/19 02:55:45;;;;;;;16.23;3.38;;;;;;;7.96;100.00;101985.16;5075781;28;20047;-78
2023/02/19 02:58:12;;;;;;;17.17;2.95;;;;;;;7.89;100.00;101984.66;5075060;28;20044;-78
2023/02/19 03:03:28;;;;;;;20.90;3.55;;;;;;;7.82;100.00;102001.88;5076714;28;20048;-78
2023/02/19 03:05:58;;;;;;;16.23;2.90;;;;;;;7.85;100.00;101998.19;5076825;28;20086;-78
2023/02/19 03:08:41;;;;;;;27.58;3.70;;;;;;;7.89;100.00;102011.16;5075419;28;20078;-78
2023/02/19 03:19:48;;;;;;;15.18;3.67;;;;;;;7.90;100.00;102014.69;5075448;28;20075;-78
2023/02/19 03:22:18;;;;;;;26.88;4.15;;;;;;;7.89;100.00;102026.22;5074769;28;20044;-78
2023/02/19 03:27:45;;;;;;;21.55;3.60;;;;;;;7.84;100.00;102025.66;5075188;28;20055;-80
2023/02/19 03:30:17;;;;;;;21.25;3.22;;;;;;;7.71;100.00;102021.06;5074341;28;20030;-81
2023/02/19 03:32:50;;;;;;;22.50;3.17;;;;;;;7.55;100.00;102025.56;5074792;28;20554;-80
2023/02/19 03:35:21;;;;;;;23.88;3.75;;;;;;;7.41;100.00;102031.69;5074716;28;20534;-82
2023/02/19 03:38:01;;;;;;;19.67;3.78;;;;;;;7.36;100.00;102024.00;5075015;28;20041;-81
2023/02/19 03:40:30;;;;;;;22.17;3.83;;;;;;;7.29;100.00;102030.59;5057018;28;20132;-81
2023/02/19 03:42:59;;;;;;;15.10;2.80;;;;;;;7.22;100.00;102040.69;5074595;28;20428;-82
2023/02/19 03:45:49;;;;;;;25.90;3.92;;;;;;;7.21;100.00;102040.75;5074212;28;20025;-81
2023/02/19 03:48:21;;;;;;;20.33;3.17;;;;;;;7.17;100.00;102032.16;5075206;28;20032;-80
2023/02/19 03:51:02;;;;;;;24.40;4.20;;;;;;;7.15;100.00;102036.69;5076842;28;20465;-80
2023/02/19 03:53:31;;;;;;;18.30;3.58;;;;;;;7.17;100.00;102037.44;5059776;28;20036;-81
2023/02/19 03:56:03;;;;;;;17.08;3.13;;;;;;;7.24;100.00;102035.31;5075526;28;20032;-81
2023/02/19 03:58:43;;;;;;;12.93;3.10;;;;;;;7.28;100.00;102038.63;5074001;28;20020;-84
2023/02/19 04:01:21;;;;;;;27.17;3.35;;;;;;;7.34;100.00;102040.94;5073838;28;20032;-80
2023/02/19 04:04:19;;;;;;;22.63;3.13;;;;;;;7.34;100.00;102052.34;5074311;28;20032;-80
2023/02/19 04:06:51;;;;;;;15.20;3.08;;;;;;;7.41;100.00;102042.28;5073811;28;20041;-83
2023/02/19 04:09:19;;;;;;;13.77;2.72;;;;;;;7.42;100.00;102046.66;5073589;28;20385;-80
2023/02/19 04:11:46;;;;;;;19.83;3.10;;;;;;;7.43;100.00;102048.31;5074266;28;20032;-80
2023/02/19 04:14:18;;;;;;;19.95;3.97;;;;;;;7.40;100.00;102053.81;5073754;28;20461;-81
2023/02/19 04:16:46;;;;;;;;;;;;;;;7.36;100.00;102057.56;5074809;28;20024;-82
2023/02/19 04:19:15;;;;;;;13.90;2.85;;;;;;;7.34;100.00;102064.75;5055748;28;20361;-82
2023/02/19 04:21:43;;;;;;;14.30;3.30;;;;;;;7.34;100.00;102062.94;5073995;28;20031;-80
2023/02/19 04:24:20;;;;;;;23.92;3.70;;;;;;;7.31;100.00;102068.41;5073274;28;20396;-81
2023/02/19 04:26:46;;;;;;;30.15;3.58;;;;;;;7.31;100.00;102081.66;5074093;28;20054;-81
2023/02/19 04:29:11;;;;;;;18.58;2.88;;;;;;;7.34;100.00;102089.44;5073596;28;20480;-81
2023/02/19 04:31:37;;;;;;;20.95;3.63;;;;;;;7.32;100.00;102083.38;5073959;28;20452;-80
2023/02/19 04:34:03;;;;;;;29.65;3.80;;;;;;;7.34;100.00;102092.06;5073609;28;20029;-80
2023/02/19 04:36:32;;;;;;;20.98;3.50;;;;;;;7.37;100.00;102101.66;5073459;28;20541;-81
2023/02/19 04:38:58;;;;;;;25.83;3.78;;;;;;;7.41;100.00;102097.88;5055662;28;20032;-79
2023/02/19 04:41:23;;;;;;;18.08;3.03;;;;;;;7.44;100.00;102115.41;5073252;28;20119;-80
2023/02/19 04:43:48;;;;;;;24.33;3.95;;;;;;;7.44;100.00;102110.09;5073523;28;20477;-79
2023/02/19 04:46:14;;;;;;;18.17;4.18;;;;;;;7.46;100.00;102129.41;5055192;28;20451;-82
2023/02/19 04:48:41;;;;;;;18.25;3.42;;;;;;;7.47;100.00;102110.78;5073524;28;20158;-81
2023/02/19 04:51:08;;;;;;;20.83;3.75;;;;;;;7.47;100.00;102123.19;5073525;28;20025;-79
2023/02/19 04:53:34;;;;;;;22.20;3.53;;;;;;;7.40;100.00;102126.19;5072981;28;20024;-79
2023/02/19 04:56:13;;;;;;;18.95;3.47;;;;;;;7.31;100.00;102133.78;5073344;28;20384;-79
2023/02/19 04:58:40;;;;;;;25.33;4.32;;;;;;;7.30;100.00;102146.16;5072973;28;20032;-79
2023/02/19 05:01:06;;;;;;;18.73;3.17;;;;;;;7.30;100.00;102135.56;5054986;28;20047;-80
2023/02/19 05:03:34;;;;;;;8.68;2.22;;;;;;;7.35;100.00;102153.84;5072509;28;20656;-78
2023/02/19 05:06:11;;;;;;;16.92;3.00;;;;;;;7.36;100.00;102148.47;5072910;28;20032;-78
2023/02/19 05:08:36;;;;;;;15.82;3.15;;;;;;;7.40;100.00;102163.25;5072687;28;20032;-79
2023/02/19 05:11:04;;;;;;;14.40;2.97;;;;;;;7.44;100.00;102165.72;5073123;28;20035;-78
2023/02/19 05:13:30;;;;;;;10.20;2.75;;;;;;;7.47;100.00;102174.34;5072307;28;20111;-78
2023/02/19 05:16:08;;;;;;;19.75;2.97;;;;;;;7.50;100.00;102168.88;5072802;28;20081;-78
2023/02/19 05:18:34;;;;;;;13.95;2.55;;;;;;;7.49;100.00;102153.91;5072087;28;20032;-78
2023/02/19 05:21:00;;;;;;;12.60;3.15;;;;;;;7.49;100.00;102176.91;5073006;28;20036;-78
2023/02/19 05:23:27;;;;;;;15.82;2.90;;;;;;;7.48;100.00;102176.06;5072043;28;20505;-78
2023/02/19 05:25:52;;;;;;;18.05;3.25;;;;;;;7.44;100.00;102176.31;5072760;28;20465;-79
2023/02/19 05:28:19;;;;;;;18.75;3.70;;;;;;;7.41;100.00;102183.47;5072191;28;20033;-79
2023/02/19 05:30:49;;;;;;;18.42;2.70;;;;;;;7.38;100.00;102178.34;5055070;28;20418;-79
2023/02/19 05:33:17;;;;;;;15.83;3.70;;;;;;;7.38;100.00;102172.22;5072728;28;20532;-82
2023/02/19 05:35:51;;;;;;;24.67;3.72;;;;;;;7.32;100.00;102172.56;5072924;28;20036;-78
2023/02/19 05:38:17;;;;;;;22.55;3.72;;;;;;;7.27;100.00;102183.41;5072364;28;20040;-80
2023/02/19 05:40:43;;;;;;;11.75;2.60;;;;;;;7.24;100.00;102176.47;5072636;28;20056;-79
2023/02/19 05:43:08;;;;;;;16.55;3.75;;;;;;;7.20;100.00;102169.63;5072426;28;20055;-78
2023/02/19 05:45:35;;;;;;;8.50;2.78;;;;;;;7.16;100.00;102176.03;5072420;28;20461;-79
2023/02/19 05:48:00;;;;;;;12.73;2.70;;;;;;;7.13;100.00;102178.00;5054697;28;20067;-78
2023/02/19 05:50:25;;;;;;;13.60;3.38;;;;;;;7.08;100.00;102180.91;5072171;28;20035;-79
2023/02/19 05:52:51;;;;;;;16.48;3.03;;;;;;;7.06;100.00;102173.03;5054635;28;20029;-80
2023/02/19 05:55:17;;;;;;;16.10;3.75;;;;;;;7.05;100.00;102178.44;5072631;28;20514;-78
2023/02/19 05:57:44;;;;;;;16.83;3.05;;;;;;;7.03;100.00;102185.56;5054240;28;20056;-79
2023/02/19 06:00:12;;;;;;;19.08;3.13;;;;;;;7.02;100.00;102187.38;5073105;28;20036;-78
2023/02/19 06:02:37;;;;;;;14.93;3.20;;;;;;;7.01;100.00;102182.16;5071870;28;20047;-79
2023/02/19 06:05:04;;;;;;;17.02;4.32;;;;;;;7.02;100.00;102197.97;5072470;28;20461;-78
2023/02/19 06:07:30;;;;;;;19.98;3.40;;;;;;;7.04;100.00;102211.09;5072103;28;20033;-78
2023/02/19 06:09:55;;;;;;;20.42;3.35;;;;;;;7.06;100.00;102212.75;5054387;28;20423;-79
2023/02/19 06:12:21;;;;;;;16.38;3.25;;;;;;;7.06;100.00;102215.41;5071906;28;20038;-80
2023/02/19 06:14:48;;;;;;;15.50;3.20;;;;;;;7.06;100.00;102209.22;5072030;28;20054;-78
2023/02/19 06:17:13;;;;;;;12.35;3.05;;;;;;;7.09;100.00;102211.72;5072384;28;20032;-80
2023/02/19 06:19:38;;;;;;;15.20;3.88;;;;;;;7.11;100.00;102224.88;5071543;28;20040;-78
2023/02/19 06:22:04;;;;;;;14.48;3.08;;;;;;;7.09;100.00;102211.72;5075981;28;20037;-78
2023/02/19 06:24:30;;;;;;;18.60;3.17;;;;;;;7.13;100.00;102223.00;5075860;28;20472;-78
2023/02/19 06:26:55;;;;;;;18.13;3.25;;;;;;;7.14;100.00;102230.84;5076406;28;20065;-79
2023/02/19 06:29:20;;;;;;;17.88;4.03;;;;;;;7.12;100.00;102227.44;5058414;28;20041;-79
2023/02/19 06:31:46;;;;;;;14.63;3.10;;;;;;;7.13;100.00;102233.59;5075967;28;20053;-79
2023/02/19 06:34:11;;;;;;;13.57;3.13;;;;;;;7.14;100.00;102230.84;5076425;28;20044;-78
2023/02/19 06:36:37;;;;;;;15.65;3.47;;;;;;;7.16;100.00;102234.25;5075681;28;20035;-78
2023/02/19 06:39:04;;;;;;;14.82;2.75;;;;;;;7.12;100.00;102227.44;5058243;28;20035;-80
2023/02/19 06:41:29;;;;;;;11.98;2.97;;;;;;;7.09;100.00;102232.91;5075632;28;20406;-78
2023/02/19 06:43:56;;;;;;;10.10;3.05;;;;;;;7.11;100.00;102238.13;5075956;28;20105;-77
2023/02/19 06:46:22;;;;;;;13.05;2.50;;;;;;;7.10;100.00;102239.88;5075779;28;20029;-79
2023/02/19 06:48:47;;;;;;;12.32;3.03;;;;;;;7.11;100.00;102232.81;5075584;28;20484;-78
2023/02/19 06:51:25;;;;;;;13.10;3.28;;;;;;;7.11;100.00;102251.34;5075739;28;20071;-79
2023/02/19 06:53:51;;;;;;;16.13;3.20;;;;;;;7.12;100.00;102240.69;5075839;28;20158;-78
2023/02/19 06:56:23;;;;;;;16.30;3.45;;;;;;;7.15;100.00;102253.75;5057538;28;20486;-78
2023/02/19 06:58:49;;;;;;;18.60;3.05;;;;;;;7.15;100.00;102247.59;5075603;28;20029;-79
2023/02/19 07:01:15;;;;;;;11.30;2.53;;;;;;;7.18;100.00;102255.34;5075694;28;20021;-78
2023/02/19 07:03:40;;;;;;;21.77;3.15;;;;;;;7.18;100.00;102260.66;5075210;28;20043;-79
2023/02/19 07:06:06;;;;;;;13.82;2.47;;;;;;;7.11;100.00;102273.38;5075403;28;20082;-78
2023/02/19 07:08:31;;;;;;;18.73;2.92;;;;;;;7.01;100.00;102275.63;5075258;28;20453;-78
2023/02/19 07:10:57;;;;;;;20.83;3.50;;;;;;;6.91;100.00;102277.06;5075402;28;20419;-78
2023/02/19 07:13:25;;;;;;;12.00;2.22;;;;;;;6.87;100.00;102286.94;5075486;28;20059;-78
2023/02/19 07:15:56;;;;;;;17.50;3.88;;;;;;;6.82;100.00;102286.34;5075087;28;20071;-79
2023/02/19 07:18:21;;;;;;;9.23;3.05;;;;;;;6.77;100.00;102288.34;5075614;28;20052;-79
2023/02/19 07:20:47;;;;;;;12.45;3.42;;;;;;;6.75;100.00;102305.25;5057083;28;20040;-78
2023/02/19 07:23:12;;;;;;;16.20;3.60;;;;;;;6.74;100.00;102316.78;5075428;28;20039;-78
2023/02/19 07:25:38;;;;;;;13.07;3.80;;;;;;;6.70;100.00;102314.28;5056851;28;20033;-79
2023/02/19 07:28:03;;;;;;;13.90;3.85;;;;;;;6.73;100.00;102323.00;5057251;28;20033;-78
2023/02/19 07:30:29;;;;;;;13.57;3.28;;;;;;;6.72;100.00;102316.84;5074881;28;20106;-83
2023/02/19 07:32:54;;;;;;;27.58;4.25;;;;;;;6.73;100.00;102323.84;5074427;28;20048;-78
2023/02/19 07:35:20;;;;;;;9.65;3.22;;;;;;;6.73;100.00;102329.13;5075171;28;20378;-78
2023/02/19 07:37:45;;;;;;;16.00;3.15;;;;;;;6.70;100.00;102332.81;5074622;28;20433;-79
2023/02/19 07:40:10;;;;;;;15.52;3.35;;;;;;;6.72;100.00;102338.00;5075026;28;20032;-81
2023/02/19 07:42:36;;;;;;;8.95;2.50;;;;;;;6.72;100.00;102345.94;5074462;28;20032;-80
2023/02/19 07:45:01;;;;;;;12.40;3.17;;;;;;;6.70;100.00;102353.97;5074632;28;20211;-80
2023/02/19 07:47:28;;;;;;;15.77;3.63;;;;;;;6.68;100.00;102347.03;5074904;28;20039;-79
2023/02/19 07:49:53;;;;;;;16.05;3.25;;;;;;;6.65;100.00;102360.41;5074237;28;20033;-78
2023/02/19 07:52:18;;;;;;;16.58;2.92;;;;;;;6.66;100.00;102362.13;5056796;28;20090;-78
2023/02/19 07:54:44;;;;;;;14.07;2.95;;;;;;;6.66;100.00;102378.00;5075092;28;20039;-79
2023/02/19 07:57:10;;;;;;;17.52;3.25;;;;;;;6.65;100.00;102381.56;5057275;28;20036;-79
2023/02/19 07:59:35;;;;;;;16.02;3.25;;;;;;;6.65;100.00;102387.72;5074075;28;20036;-80
2023/02/19 08:04:46;;;;;;;18.30;3.53;;;;;;;6.63;100.00;102392.22;5074097;28;20047;-79
2023/02/19 08:07:12;;;;;;;18.33;3.25;;;;;;;6.63;100.00;102391.38;5056821;28;20059;-80
2023/02/19 08:09:37;;;;;;;15.98;3.00;;;;;;;6.62;100.00;102397.59;5074077;28;20389;-81
2023/02/19 08:14:46;;;;;;;14.23;2.60;;;;;;;6.63;100.00;102402.81;5074142;28;20056;-81
2023/02/19 08:17:11;;;;;;;18.35;3.13;;;;;;;6.64;100.00;102398.38;5074308;28;20357;-80
2023/02/19 08:19:37;;;;;;;15.60;3.25;;;;;;;6.63;100.00;102397.50;5073919;28;20055;-80
2023/02/19 08:22:02;;;;;;;19.17;3.58;;;;;;;6.66;100.00;102389.44;5074283;28;20388;-83
2023/02/19 08:24:41;;;;;;;19.58;3.20;;;;;;;6.67;100.00;102398.22;5074519;28;20085;-80
2023/02/19 08:27:07;;;;;;;21.92;3.47;;;;;;;6.74;100.00;102404.06;5056836;28;20468;-79
2023/02/19 08:29:33;;;;;;;18.73;3.75;;;;;;;6.77;100.00;102398.63;5074072;28;20051;-80
2023/02/19 08:31:59;;;;;;;15.57;2.95;;;;;;;6.79;100.00;102412.63;5073302;28;20063;-80
2023/02/19 08:34:24;;;;;;;27.92;3.75;;;;;;;6.79;100.00;102416.16;5074184;28;20028;-80
2023/02/19 08:36:49;;;;;;;15.85;3.60;;;;;;;6.79;100.00;102404.69;5073204;28;20119;-79
2023/02/19 08:39:15;;;;;;;17.15;3.42;;;;;;;6.82;100.00;102410.69;5074052;28;20033;-80
2023/02/19 08:41:40;;;;;;;19.42;3.33;;;;;;;6.84;100.00;102419.41;5073058;28;20052;-80
2023/02/19 08:44:05;;;;;;;19.67;3.33;;;;;;;6.85;100.00;102409.66;5073198;28;20041;-82
2023/02/19 08:46:31;;;;;;;13.40;3.00;;;;;;;6.89;100.00;102422.66;5073861;28;20040;-81
2023/02/19 08:48:56;;;;;;;23.17;3.53;;;;;;;6.92;100.00;102411.06;5074406;28;20031;-81
2023/02/19 08:51:22;;;;;;;13.20;2.95;;;;;;;6.97;100.00;102413.50;5073631;28;20036;-80
2023/02/19 08:53:47;;;;;;;16.17;2.97;;;;;;;7.06;100.00;102413.91;5055685;28;20041;-80
2023/02/19 08:56:15;;;;;;;14.00;2.80;;;;;;;7.11;100.00;102402.22;5074080;28;20127;-80
2023/02/19 08:58:41;;;;;;;20.77;3.40;;;;;;;7.14;100.00;102402.06;5073558;28;20132;-82
2023/02/19 09:01:14;;;;;;;15.25;3.03;;;;;;;7.17;100.00;102393.97;5073643;28;20173;-79
2023/02/19 09:03:41;;;;;;;19.98;3.20;;;;;;;7.31;100.00;102406.50;5075962;28;20033;-79
2023/02/19 09:06:06;;;;;;;19.10;3.45;;;;;;;7.46;100.00;102412.78;5076531;28;20032;-83
2023/02/19 09:08:32;;;;;;;22.15;3.67;;;;;;;7.55;100.00;102420.22;5078368;28;20040;-78
2023/02/19 09:11:03;;;;;;;18.10;2.70;;;;;;;7.70;100.00;102418.56;5073260;28;20469;-82
2023/02/19 09:13:29;;;;;;;19.70;3.25;;;;;;;7.69;100.00;102438.06;5073463;28;20028;-80
2023/02/19 09:15:55;;;;;;;20.90;2.85;;;;;;;7.63;100.00;102427.78;5073122;28;20036;-81
2023/02/19 09:18:21;;;;;;;14.93;3.08;;;;;;;7.66;100.00;102431.13;5073360;28;20037;-80
2023/02/19 09:20:46;;;;;;;18.75;3.58;;;;;;;7.72;100.00;102437.91;5060870;28;20036;-80
2023/02/19 09:23:12;;;;;;;18.63;3.08;;;;;;;7.79;100.00;102449.03;5050559;28;20029;-77
2023/02/19 09:25:37;;;;;;;23.60;3.70;;;;;;;7.90;100.00;102450.16;5037621;28;20033;-82
2023/02/19 09:28:03;;;;;;;14.57;2.65;;;;;;;7.97;100.00;102460.44;5050084;28;20112;-81
2023/02/19 09:30:28;;;;;;;12.77;2.42;;;;;;;7.91;100.00;102470.44;5050694;28;20085;-80
2023/02/19 09:32:53;;;;;;;20.17;2.65;;;;;;;7.97;100.00;102473.69;5060839;28;20111;-82
2023/02/19 09:35:19;;;;;;;9.52;2.38;;;;;;;7.95;100.00;102476.41;5032673;28;20041;-82
2023/02/19 09:37:44;;;;;;;5.70;1.77;;;;;;;7.92;100.00;102474.78;5050676;28;20056;-82
2023/02/19 09:40:10;;;;;;;11.35;2.22;;;;;;;7.75;100.00;102485.44;5050507;28;20035;-85
2023/02/19 09:42:39;;;;;;;7.60;1.70;;;;;;;7.66;100.00;102491.19;5051151;28;20124;-84
2023/02/19 09:45:05;;;;;;;8.52;2.00;;;;;;;7.59;100.00;102493.31;5032148;28;20060;-84
2023/02/19 09:47:33;;;;;;;11.50;1.98;;;;;;;7.53;100.00;102501.59;5051124;28;20060;-81
2023/02/19 09:50:05;;;;;;;12.07;2.00;;;;;;;7.46;100.00;102516.91;5050009;28;20035;-81
2023/02/19 09:52:36;;;;;;;;;;;;;;;7.44;100.00;102515.31;5051216;28;20059;-83
2023/02/19 09:55:27;;;;;;;7.22;1.63;;;;;;;7.41;100.00;102516.31;5049382;28;19944;-82
2023/02/19 09:57:53;;;;;;;4.40;1.67;;;;;;;7.45;100.00;102515.22;5049962;28;20505;-84
2023/02/19 10:00:34;;;;;;;9.30;1.98;;;;;;;7.44;100.00;102518.78;5050189;28;20075;-81
2023/02/19 10:03:20;;;;;;;10.48;1.95;;;;;;;7.44;100.00;102507.34;5049554;28;20481;-80
2023/02/19 10:05:46;;;;;;;10.77;2.45;;;;;;;7.39;100.00;102520.84;5050494;28;20044;-82
2023/02/19 10:08:17;;;;;;;7.10;1.30;;;;;;;7.31;100.00;102523.00;5049864;28;20033;-82
2023/02/19 10:10:43;;;;;;;17.10;2.05;;;;;;;7.24;100.00;102533.91;5032543;28;20029;-85
2023/02/19 10:13:19;;;;;;;7.10;2.05;;;;;;;7.20;100.00;102529.66;5049933;28;20615;-82
2023/02/19 10:15:50;;;;;;;12.90;2.13;;;;;;;7.12;100.00;102533.63;5050452;28;20025;-82
2023/02/19 10:18:30;;;;;;;10.32;1.90;;;;;;;7.06;100.00;102532.13;5050760;28;20111;-85
2023/02/19 10:20:56;;;;;;;8.98;1.80;;;;;;;7.07;100.00;102549.75;5049798;28;20025;-84
2023/02/19 10:23:23;;;;;;;9.45;1.92;;;;;;;7.11;100.00;102559.25;5050300;28;20029;-82
2023/02/19 10:25:56;;;;;;;15.35;3.42;;;;;;;7.11;100.00;102559.25;5049821;28;20362;-84
2023/02/19 10:28:26;;;;;;;9.00;1.83;;;;;;;7.12;100.00;102555.69;5050603;28;20160;-82
2023/02/19 10:30:54;;;;;;;8.07;2.03;;;;;;;7.15;100.00;102562.59;5050182;28;20105;-80
2023/02/19 10:33:20;;;;;;;13.73;1.52;;;;;;;7.21;100.00;102562.28;5048524;28;20089;-82
2023/02/19 10:35:59;;;;;;;7.43;1.73;;;;;;;7.23;100.00;102560.44;5049137;28;20044;-82
2023/02/19 10:38:29;;;;;;;8.27;1.80;;;;;;;7.37;100.00;102557.94;5058047;28;20041;-79
2023/02/19 10:41:07;;;;;;;14.88;2.83;;;;;;;7.54;100.00;102557.13;5067179;28;20411;-83
2023/02/19 10:43:38;;;;;;;5.57;1.67;;;;;;;7.69;100.00;102557.31;5072528;28;20043;-82
2023/02/19 10:46:16;;;;;;;3.78;1.10;;;;;;;7.78;100.00;102554.16;5071857;28;20047;-82
2023/02/19 10:48:50;;;;;;;3.88;1.40;;;;;;;7.86;100.00;102561.72;5072157;28;20024;-85
2023/02/19 10:51:20;;;;;;;5.03;1.25;;;;;;;7.90;100.00;102560.63;5071772;28;20036;-86
2023/02/19 10:54:01;;;;;;;10.18;1.60;;;;;;;7.89;100.00;102565.06;5072087;28;20032;-79
2023/02/19 10:56:30;;;;;;;9.80;1.13;;;;;;;7.86;100.00;102561.72;5071783;28;20035;-81
2023/02/19 10:59:14;;;;;;;5.63;0.85;;;;;;;7.68;100.00;102563.53;5071986;28;20032;-80
2023/02/19 11:02:01;;;;;;;10.45;2.10;;;;;;;7.55;100.00;102561.50;5072207;28;20119;-84
2023/02/19 11:04:34;;;;;;;11.25;1.27;;;;;;;7.41;100.00;102556.03;5072067;28;20037;-82
2023/02/19 11:07:17;;;;;;;5.93;1.08;;;;;;;7.42;100.00;102560.41;5073069;28;20031;-81
2023/02/19 11:09:45;;;;;;;9.90;1.30;;;;;;;7.36;100.00;102558.91;5075859;28;20032;-81
2023/02/19 11:12:23;;;;;;;8.02;1.75;;;;;;;7.35;100.00;102557.19;5076030;28;20033;-79
2023/02/19 11:14:49;;;;;;;7.93;1.48;;;;;;;7.40;100.00;102554.31;5075684;28;20020;-81
2023/02/19 11:17:27;;;;;;;9.15;1.73;;;;;;;7.44;100.00;102555.88;5075509;28;20031;-81
2023/02/19 11:20:06;;;;;;;9.30;1.70;;;;;;;7.37;100.00;102563.25;5075654;28;20024;-81
2023/02/19 11:22:36;;;;;;;10.75;1.90;;;;;;;7.28;100.00;102579.59;5075997;28;20115;-83
2023/02/19 11:25:05;;;;;;;9.33;1.53;;;;;;;7.25;100.00;102579.75;5075194;28;20028;-83
2023/02/19 11:27:31;;;;;;;6.38;1.63;;;;;;;7.22;100.00;102577.25;5075614;28;20789;-84
2023/02/19 11:30:25;;;;;;;10.00;1.77;;;;;;;7.12;100.00;102579.50;5075000;28;20036;-82
2023/02/19 11:32:50;;;;;;;11.57;2.03;;;;;;;7.17;100.00;102574.84;5056921;28;20056;-79
2023/02/19 11:35:21;;;;;;;8.07;1.30;;;;;;;7.22;100.00;102574.59;5074500;28;20044;-80
2023/02/19 11:37:58;;;;;;;5.70;1.20;;;;;;;7.35;100.00;102578.38;5074948;28;20033;-80
2023/02/19 11:40:32;;;;;;;2.15;1.10;;;;;;;7.53;100.00;102565.16;5074663;28;20032;-78
2023/02/19 11:43:13;;;;;;;4.85;1.02;;;;;;;7.73;100.00;102566.78;5074413;28;20037;-78
2023/02/19 11:45:50;;;;;;;4.38;0.98;;;;;;;7.91;100.00;102568.50;5074815;28;20074;-80
2023/02/19 11:48:35;;;;;;;4.40;1.20;;;;;;;8.07;100.00;102571.19;5074661;28;20032;-79
2023/02/19 11:51:37;;;;;;;3.10;0.90;;;;;;;8.15;100.00;102572.59;5074042;28;20029;-80
2023/02/19 11:54:38;;;;;;;1.00;0.88;;;;;;;8.24;100.00;102582.69;5050581;28;20044;-79